createdAt,value
2017-09-10T00:02:17.305Z,12.44
2017-09-10T00:04:46.412Z,12.33
2017-09-10T00:07:15.504Z,12.38
2017-09-10T00:09:44.618Z,12.40
2017-09-10T00:12:12.982Z,12.44
2017-09-10T00:14:41.773Z,12.35
2017-09-10T00:17:10.091Z,12.38
2017-09-10T00:19:39.270Z,12.41
2017-09-10T00:22:08.381Z,12.33
2017-09-10T00:24:36.703Z,12.38
2017-09-10T00:27:05.056Z,12.42
2017-09-10T00:29:35.314Z,12.31
2017-09-10T00:32:03.661Z,12.41
2017-09-10T00:34:31.993Z,12.38
2017-09-10T00:37:02.012Z,12.45
2017-09-10T00:39:30.359Z,12.33
2017-09-10T00:41:58.689Z,12.27
2017-09-10T00:44:27.034Z,12.32
2017-09-10T00:46:55.350Z,12.44
2017-09-10T00:49:24.915Z,12.49
2017-09-10T00:51:54.144Z,12.40
2017-09-10T00:54:22.509Z,12.41
2017-09-10T00:56:51.621Z,12.44
2017-09-10T00:59:19.977Z,12.44
2017-09-10T01:01:48.327Z,12.48
2017-09-10T01:04:16.681Z,12.42
2017-09-10T01:06:46.930Z,12.44
2017-09-10T01:09:15.264Z,12.49
2017-09-10T01:11:43.582Z,12.46
2017-09-10T01:14:11.963Z,12.35
2017-09-10T01:16:40.285Z,12.41
2017-09-10T01:19:09.382Z,12.46
2017-09-10T01:21:38.463Z,12.28
2017-09-10T01:24:07.107Z,12.28
2017-09-10T01:26:35.446Z,12.27
2017-09-10T01:29:04.546Z,12.33
2017-09-10T01:31:32.886Z,12.35
2017-09-10T01:34:01.206Z,12.34
2017-09-10T01:36:31.470Z,12.31
2017-09-10T01:38:59.791Z,12.25
2017-09-10T01:41:28.916Z,12.27
2017-09-10T01:43:57.256Z,12.30
2017-09-10T01:46:25.571Z,12.35
2017-09-10T01:48:54.689Z,12.30
2017-09-10T01:51:23.013Z,12.23
2017-09-10T01:53:51.354Z,12.16
2017-09-10T01:56:19.674Z,12.24
2017-09-10T01:58:48.015Z,12.08
2017-09-10T02:01:17.045Z,12.09
2017-09-10T02:03:45.427Z,12.15
2017-09-10T02:06:13.792Z,12.12
2017-09-10T02:08:43.335Z,12.02
2017-09-10T02:11:11.668Z,12.07
2017-09-10T02:13:39.989Z,12.14
2017-09-10T02:16:08.331Z,12.06
2017-09-10T02:18:36.685Z,12.09
2017-09-10T02:21:05.033Z,12.07
2017-09-10T02:23:34.135Z,12.07
2017-09-10T02:26:03.264Z,12.00
2017-09-10T02:28:31.595Z,12.07
2017-09-10T02:30:59.928Z,12.14
2017-09-10T02:33:28.299Z,12.09
2017-09-10T02:35:56.658Z,12.11
2017-09-10T02:38:24.993Z,12.11
2017-09-10T02:40:53.346Z,12.14
2017-09-10T02:43:21.679Z,12.12
2017-09-10T02:45:50.785Z,12.10
2017-09-10T02:48:19.123Z,12.15
2017-09-10T02:50:47.480Z,12.15
2017-09-10T02:53:15.824Z,12.16
2017-09-10T02:55:44.932Z,12.19
2017-09-10T02:58:13.266Z,12.26
2017-09-10T03:00:41.575Z,12.26
2017-09-10T03:03:10.686Z,12.34
2017-09-10T03:05:39.002Z,12.38
2017-09-10T03:08:07.609Z,12.39
2017-09-10T03:10:35.930Z,12.32
2017-09-10T03:13:04.245Z,12.23
2017-09-10T03:15:32.626Z,12.24
2017-09-10T03:18:00.954Z,12.27
2017-09-10T03:20:29.305Z,12.28
2017-09-10T03:22:57.628Z,12.05
2017-09-10T03:25:26.389Z,11.93
2017-09-10T03:27:54.704Z,11.81
2017-09-10T03:30:23.801Z,11.75
2017-09-10T03:32:52.149Z,11.79
2017-09-10T03:35:20.479Z,11.68
2017-09-10T03:37:48.833Z,11.73
2017-09-10T03:40:17.166Z,11.83
2017-09-10T03:42:45.517Z,11.53
2017-09-10T03:45:13.846Z,11.58
2017-09-10T03:47:42.720Z,11.55
2017-09-10T03:50:11.072Z,11.51
2017-09-10T03:52:39.448Z,11.42
2017-09-10T03:55:07.820Z,11.40
2017-09-10T03:57:36.165Z,11.46
2017-09-10T04:00:04.814Z,11.20
2017-09-10T04:02:33.220Z,11.02
2017-09-10T04:05:02.308Z,11.13
2017-09-10T04:07:30.660Z,10.95
2017-09-10T04:09:58.989Z,11.04
2017-09-10T04:12:27.365Z,11.13
2017-09-10T04:14:55.685Z,10.93
2017-09-10T04:17:24.516Z,10.96
2017-09-10T04:19:53.591Z,10.93
2017-09-10T04:22:21.920Z,10.88
2017-09-10T04:24:50.265Z,10.97
2017-09-10T04:27:18.588Z,10.92
2017-09-10T04:29:46.914Z,10.81
2017-09-10T04:32:15.266Z,10.80
2017-09-10T04:34:43.613Z,10.74
2017-09-10T04:37:11.941Z,10.86
2017-09-10T04:39:40.261Z,10.77
2017-09-10T04:42:08.607Z,10.83
2017-09-10T04:44:36.935Z,10.86
2017-09-10T04:47:05.301Z,10.70
2017-09-10T04:49:33.617Z,10.77
2017-09-10T04:52:01.958Z,10.68
2017-09-10T04:54:30.302Z,10.69
2017-09-10T04:56:58.615Z,10.72
2017-09-10T04:59:26.939Z,10.80
2017-09-10T05:01:55.259Z,10.77
2017-09-10T05:04:23.608Z,10.54
2017-09-10T05:06:51.941Z,10.43
2017-09-10T05:09:20.279Z,10.40
2017-09-10T05:11:48.619Z,10.34
2017-09-10T05:14:17.827Z,10.32
2017-09-10T05:16:46.159Z,10.46
2017-09-10T05:19:15.235Z,10.49
2017-09-10T05:21:43.603Z,10.40
2017-09-10T05:24:11.928Z,10.38
2017-09-10T05:26:40.270Z,10.53
2017-09-10T05:29:08.602Z,10.54
2017-09-10T05:31:36.925Z,10.40
2017-09-10T05:34:05.264Z,10.32
2017-09-10T05:36:33.591Z,10.41
2017-09-10T05:39:01.945Z,10.44
2017-09-10T05:41:30.310Z,10.41
2017-09-10T05:43:58.674Z,10.23
2017-09-10T05:46:27.033Z,10.29
2017-09-10T05:48:56.127Z,10.47
2017-09-10T05:51:25.227Z,10.54
2017-09-10T05:53:53.563Z,10.39
2017-09-10T05:56:21.890Z,10.35
2017-09-10T05:58:50.237Z,10.40
2017-09-10T06:01:18.564Z,10.35
2017-09-10T06:03:46.904Z,10.32
2017-09-10T06:06:15.230Z,10.38
2017-09-10T06:08:43.581Z,10.52
2017-09-10T06:11:12.684Z,10.61
2017-09-10T06:13:40.994Z,10.68
2017-09-10T06:16:09.323Z,10.78
2017-09-10T06:18:38.456Z,10.63
2017-09-10T06:21:06.795Z,10.64
2017-09-10T06:23:35.910Z,10.51
2017-09-10T06:26:04.265Z,10.60
2017-09-10T06:28:32.608Z,10.80
2017-09-10T06:31:00.962Z,10.86
2017-09-10T06:33:29.282Z,10.98
2017-09-10T06:35:57.623Z,11.05
2017-09-10T06:38:26.371Z,11.12
2017-09-10T06:40:54.720Z,11.20
2017-09-10T06:43:23.099Z,11.24
2017-09-10T06:45:55.505Z,11.26
2017-09-10T06:48:23.842Z,11.31
2017-09-10T06:50:52.163Z,11.34
2017-09-10T06:53:20.762Z,11.45
2017-09-10T06:55:49.102Z,11.56
2017-09-10T06:58:17.437Z,11.73
2017-09-10T07:00:45.778Z,11.85
2017-09-10T07:03:14.106Z,11.94
2017-09-10T07:05:42.460Z,12.01
2017-09-10T07:08:11.175Z,12.13
2017-09-10T07:10:39.531Z,12.20
2017-09-10T07:13:08.307Z,12.26
2017-09-10T07:15:37.466Z,12.32
2017-09-10T07:18:06.618Z,12.38
2017-09-10T07:20:34.996Z,12.39
2017-09-10T07:23:04.120Z,12.50
2017-09-10T07:25:32.450Z,12.58
2017-09-10T07:28:01.366Z,12.64
2017-09-10T07:30:30.377Z,12.63
2017-09-10T07:32:59.231Z,12.69
2017-09-10T07:35:28.905Z,12.73
2017-09-10T07:37:58.082Z,12.75
2017-09-10T07:40:27.462Z,12.73
2017-09-10T07:42:56.976Z,12.79
2017-09-10T07:45:26.141Z,12.80
2017-09-10T07:47:54.491Z,12.85
2017-09-10T07:50:22.915Z,12.94
2017-09-10T07:52:52.034Z,13.01
2017-09-10T07:55:20.363Z,13.08
2017-09-10T07:57:48.995Z,13.19
2017-09-10T08:00:17.368Z,13.23
2017-09-10T08:02:46.518Z,13.32
2017-09-10T08:05:14.960Z,13.24
2017-09-10T08:07:43.737Z,13.26
2017-09-10T08:10:12.838Z,13.32
2017-09-10T08:12:41.246Z,13.34
2017-09-10T08:15:09.911Z,13.41
2017-09-10T08:17:38.262Z,13.48
2017-09-10T08:20:06.642Z,13.44
2017-09-10T08:22:35.048Z,13.51
2017-09-10T08:25:04.962Z,13.57
2017-09-10T08:27:33.329Z,13.63
2017-09-10T08:30:01.674Z,13.65
2017-09-10T08:32:30.416Z,13.79
2017-09-10T08:34:58.757Z,13.84
2017-09-10T08:37:27.112Z,13.94
2017-09-10T08:39:55.481Z,14.02
2017-09-10T08:42:23.840Z,14.12
2017-09-10T08:44:52.295Z,14.10
2017-09-10T08:47:21.415Z,14.15
2017-09-10T08:49:49.789Z,14.10
2017-09-10T08:52:19.056Z,14.11
2017-09-10T08:54:48.198Z,14.09
2017-09-10T08:57:18.478Z,14.14
2017-09-10T08:59:46.834Z,14.24
2017-09-10T09:02:15.451Z,14.34
2017-09-10T09:04:43.788Z,14.38
2017-09-10T09:07:12.882Z,14.37
2017-09-10T09:09:41.231Z,14.38
2017-09-10T09:12:10.204Z,14.44
2017-09-10T09:14:38.633Z,14.45
2017-09-10T09:17:06.980Z,14.43
2017-09-10T09:19:35.794Z,14.40
2017-09-10T09:22:04.186Z,14.27
2017-09-10T09:24:32.526Z,14.21
2017-09-10T09:27:00.898Z,14.19
2017-09-10T09:29:29.993Z,14.12
2017-09-10T09:31:58.345Z,14.12
2017-09-10T09:34:26.675Z,14.15
2017-09-10T09:36:55.028Z,14.17
2017-09-10T09:39:23.379Z,14.25
2017-09-10T09:41:51.719Z,14.31
2017-09-10T09:44:20.089Z,14.24
2017-09-10T09:46:49.189Z,14.38
2017-09-10T09:49:17.550Z,14.38
2017-09-10T09:51:45.880Z,14.37
2017-09-10T09:54:15.037Z,14.36
2017-09-10T09:56:43.720Z,14.44
2017-09-10T09:59:12.379Z,14.49
2017-09-10T10:01:40.741Z,14.53
2017-09-10T10:04:09.064Z,14.57
2017-09-10T10:06:38.570Z,14.57
2017-09-10T10:09:06.915Z,14.54
2017-09-10T10:11:35.259Z,14.43
2017-09-10T10:14:03.610Z,14.35
2017-09-10T10:16:31.995Z,14.38
2017-09-10T10:19:00.480Z,14.39
2017-09-10T10:21:29.572Z,14.42
2017-09-10T10:23:58.255Z,14.46
2017-09-10T10:26:26.581Z,14.54
2017-09-10T10:28:54.921Z,14.55
2017-09-10T10:31:23.323Z,14.64
2017-09-10T10:33:51.639Z,14.78
2017-09-10T10:36:20.000Z,14.85
2017-09-10T10:38:49.233Z,14.73
2017-09-10T10:41:17.595Z,14.59
2017-09-10T10:43:45.954Z,14.59
2017-09-10T10:46:14.297Z,14.66
2017-09-10T10:48:47.889Z,14.74
2017-09-10T10:51:16.270Z,14.72
2017-09-10T10:53:45.410Z,14.65
2017-09-10T10:56:13.887Z,14.65
2017-09-10T10:58:42.863Z,14.76
2017-09-10T11:01:11.242Z,14.53
2017-09-10T11:03:39.584Z,14.49
2017-09-10T11:06:07.965Z,14.57
2017-09-10T11:08:36.328Z,14.63
2017-09-10T11:11:05.128Z,14.58
2017-09-10T11:13:33.494Z,14.54
2017-09-10T11:16:01.871Z,14.51
2017-09-10T11:18:30.240Z,14.46
2017-09-10T11:20:58.573Z,14.38
2017-09-10T11:23:28.306Z,14.48
2017-09-10T11:25:56.660Z,14.49
2017-09-10T11:28:25.047Z,14.52
2017-09-10T11:30:53.400Z,14.43
2017-09-10T11:33:21.716Z,14.33
2017-09-10T11:35:50.073Z,14.31
2017-09-10T11:38:19.185Z,14.23
2017-09-10T11:40:47.559Z,14.29
2017-09-10T11:43:15.907Z,14.34
2017-09-10T11:45:44.264Z,14.33
2017-09-10T11:48:12.696Z,14.28
2017-09-10T11:50:41.028Z,14.34
2017-09-10T11:53:09.388Z,14.41
2017-09-10T11:55:37.720Z,14.49
2017-09-10T11:58:06.065Z,14.59
2017-09-10T12:00:34.456Z,14.65
2017-09-10T12:03:03.309Z,14.74
2017-09-10T12:05:31.640Z,14.78
2017-09-10T12:07:59.976Z,14.69
2017-09-10T12:10:28.324Z,14.77
2017-09-10T12:12:57.407Z,14.87
2017-09-10T12:15:26.539Z,15.00
2017-09-10T12:17:54.862Z,15.07
2017-09-10T12:20:23.229Z,15.13
2017-09-10T12:22:51.581Z,15.20
2017-09-10T12:25:19.913Z,15.36
2017-09-10T12:27:48.257Z,15.47
2017-09-10T12:30:16.598Z,15.60
2017-09-10T12:32:45.741Z,15.64
2017-09-10T12:35:14.079Z,15.68
2017-09-10T12:37:42.710Z,15.62
2017-09-10T12:40:11.050Z,15.60
2017-09-10T12:42:39.387Z,15.65
2017-09-10T12:45:07.741Z,15.70
2017-09-10T12:47:36.074Z,15.75
2017-09-10T12:50:04.421Z,15.71
2017-09-10T12:52:32.755Z,15.79
2017-09-10T12:55:01.154Z,15.76
2017-09-10T12:57:29.500Z,15.79
2017-09-10T12:59:58.611Z,15.82
2017-09-10T13:02:26.964Z,15.96
2017-09-10T13:04:55.313Z,16.09
2017-09-10T13:07:23.674Z,16.22
2017-09-10T13:09:52.016Z,16.29
2017-09-10T13:12:21.151Z,16.24
2017-09-10T13:14:49.494Z,16.20
2017-09-10T13:17:17.828Z,16.28
2017-09-10T13:19:46.166Z,16.38
2017-09-10T13:22:14.501Z,16.50
2017-09-10T13:24:42.928Z,16.64
2017-09-10T13:27:11.269Z,16.77
2017-09-10T13:29:39.990Z,16.85
2017-09-10T13:32:08.310Z,16.96
2017-09-10T13:34:36.638Z,16.98
2017-09-10T13:37:05.009Z,16.96
2017-09-10T13:39:34.100Z,16.89
2017-09-10T13:42:02.463Z,16.82
2017-09-10T13:44:30.807Z,16.86
2017-09-10T13:46:59.797Z,16.85
2017-09-10T13:49:28.137Z,16.83
2017-09-10T13:51:57.276Z,16.90
2017-09-10T13:54:25.645Z,16.95
2017-09-10T13:56:53.972Z,16.84
2017-09-10T13:59:22.307Z,16.76
2017-09-10T14:01:50.635Z,16.73
2017-09-10T14:04:19.012Z,16.80
2017-09-10T14:06:47.338Z,17.01
2017-09-10T14:09:15.676Z,17.11
2017-09-10T14:11:44.035Z,17.42
2017-09-10T14:14:12.383Z,17.48
2017-09-10T14:16:40.745Z,17.69
2017-09-10T14:19:09.103Z,17.89
2017-09-10T14:21:37.468Z,18.23
2017-09-10T14:24:05.810Z,18.50
2017-09-10T14:26:34.162Z,18.87
2017-09-10T14:29:02.532Z,18.95
2017-09-10T14:31:31.633Z,18.75
2017-09-10T14:33:59.976Z,18.65
2017-09-10T14:36:28.306Z,18.46
2017-09-10T14:38:57.077Z,18.44
2017-09-10T14:41:25.412Z,18.30
2017-09-10T14:43:53.736Z,18.25
2017-09-10T14:46:22.090Z,18.15
2017-09-10T14:48:50.412Z,18.07
2017-09-10T14:51:18.769Z,18.04
2017-09-10T14:53:47.871Z,18.83
2017-09-10T14:56:17.000Z,19.21
2017-09-10T14:58:45.346Z,19.40
2017-09-10T15:01:13.678Z,19.89
2017-09-10T15:03:42.033Z,20.27
2017-09-10T15:06:10.359Z,20.54
2017-09-10T15:08:38.723Z,20.75
2017-09-10T15:11:07.063Z,20.60
2017-09-10T15:13:35.668Z,20.46
2017-09-10T15:16:03.992Z,20.28
2017-09-10T15:18:32.341Z,20.50
2017-09-10T15:21:00.693Z,21.16
2017-09-10T15:23:29.036Z,21.23
2017-09-10T15:25:58.168Z,21.66
2017-09-10T15:28:26.484Z,21.76
2017-09-10T15:30:54.866Z,21.31
2017-09-10T15:33:23.237Z,20.75
2017-09-10T15:35:51.580Z,20.33
2017-09-10T15:38:19.970Z,20.37
2017-09-10T15:40:48.296Z,20.90
2017-09-10T15:43:16.652Z,21.26
2017-09-10T15:45:45.468Z,21.22
2017-09-10T15:48:13.825Z,21.08
2017-09-10T15:50:42.169Z,20.40
2017-09-10T15:53:10.510Z,20.00
2017-09-10T15:55:40.939Z,19.71
2017-09-10T15:58:10.098Z,19.37
2017-09-10T16:00:38.421Z,19.33
2017-09-10T16:03:07.537Z,19.31
2017-09-10T16:05:35.880Z,19.28
2017-09-10T16:08:04.314Z,19.28
2017-09-10T16:10:32.650Z,19.14
2017-09-10T16:13:01.004Z,19.20
2017-09-10T16:15:29.383Z,19.07
2017-09-10T16:17:57.737Z,19.06
2017-09-10T16:20:26.068Z,19.00
2017-09-10T16:22:55.515Z,19.00
2017-09-10T16:25:23.841Z,18.68
2017-09-10T16:27:52.171Z,18.68
2017-09-10T16:30:20.532Z,18.57
2017-09-10T16:32:48.868Z,18.57
2017-09-10T16:35:17.846Z,18.58
2017-09-10T16:37:46.173Z,18.59
2017-09-10T16:40:15.520Z,18.47
2017-09-10T16:42:44.151Z,18.51
2017-09-10T16:45:13.320Z,18.32
2017-09-10T16:47:41.670Z,18.32
2017-09-10T16:50:10.028Z,18.26
2017-09-10T16:52:38.417Z,18.05
2017-09-10T16:55:06.752Z,17.94
2017-09-10T16:57:35.108Z,17.77
2017-09-10T17:00:03.440Z,17.70
2017-09-10T17:02:34.534Z,17.53
2017-09-10T17:05:02.878Z,17.43
2017-09-10T17:07:31.219Z,17.39
2017-09-10T17:09:59.585Z,17.44
2017-09-10T17:12:28.311Z,17.39
2017-09-10T17:14:56.669Z,17.48
2017-09-10T17:17:25.000Z,17.41
2017-09-10T17:19:53.345Z,17.35
2017-09-10T17:22:22.498Z,17.21
2017-09-10T17:24:50.852Z,17.06
2017-09-10T17:27:19.214Z,16.93
2017-09-10T17:29:47.546Z,16.94
2017-09-10T17:32:15.881Z,16.80
2017-09-10T17:34:44.227Z,16.59
2017-09-10T17:37:12.553Z,16.42
2017-09-10T17:39:40.893Z,16.35
2017-09-10T17:42:09.698Z,16.22
2017-09-10T17:44:38.322Z,16.14
2017-09-10T17:47:06.676Z,16.14
2017-09-10T17:49:35.004Z,16.09
2017-09-10T17:52:03.351Z,15.90
2017-09-10T17:54:33.740Z,15.82
2017-09-10T17:57:02.099Z,15.70
2017-09-10T17:59:30.434Z,15.67
2017-09-10T18:01:59.071Z,15.49
2017-09-10T18:04:27.432Z,15.47
2017-09-10T18:06:55.763Z,15.33
2017-09-10T18:09:24.106Z,15.04
2017-09-10T18:11:52.438Z,14.96
2017-09-10T18:14:21.059Z,14.98
2017-09-10T18:16:49.383Z,15.00
2017-09-10T18:19:17.727Z,14.82
2017-09-10T18:21:46.088Z,14.79
2017-09-10T18:24:14.415Z,14.59
2017-09-10T18:26:42.755Z,14.52
2017-09-10T18:29:11.165Z,14.50
2017-09-10T18:31:41.138Z,14.38
2017-09-10T18:34:10.248Z,14.28
2017-09-10T18:36:40.516Z,14.25
2017-09-10T18:39:09.306Z,14.15
2017-09-10T18:41:37.890Z,14.22
2017-09-10T18:44:06.510Z,14.04
2017-09-10T18:46:34.899Z,14.01
2017-09-10T18:49:03.265Z,13.93
2017-09-10T18:51:31.613Z,13.91
2017-09-10T18:54:00.120Z,13.82
2017-09-10T18:56:28.476Z,13.84
2017-09-10T18:58:56.843Z,13.72
2017-09-10T19:01:25.996Z,13.57
2017-09-10T19:03:54.324Z,13.50
2017-09-10T19:06:23.000Z,13.40
2017-09-10T19:08:52.208Z,13.40
2017-09-10T19:11:21.299Z,13.38
2017-09-10T19:13:49.654Z,13.51
2017-09-10T19:16:18.004Z,13.43
2017-09-10T19:18:46.631Z,13.24
2017-09-10T19:21:15.761Z,13.39
2017-09-10T19:23:44.097Z,13.34
2017-09-10T19:26:12.445Z,13.27
2017-09-10T19:28:40.782Z,13.33
2017-09-10T19:31:10.202Z,13.17
2017-09-10T19:33:38.554Z,13.15
2017-09-10T19:36:07.678Z,13.14
2017-09-10T19:38:36.027Z,13.07
2017-09-10T19:41:04.367Z,13.00
2017-09-10T19:43:32.775Z,13.05
2017-09-10T19:46:01.104Z,13.08
2017-09-10T19:48:29.463Z,12.91
2017-09-10T19:50:57.809Z,12.89
2017-09-10T19:53:27.078Z,12.97
2017-09-10T19:55:55.424Z,12.84
2017-09-10T19:58:23.745Z,12.78
2017-09-10T20:00:52.108Z,12.71
2017-09-10T20:03:20.424Z,12.78
2017-09-10T20:05:48.781Z,12.72
2017-09-10T20:08:17.136Z,12.61
2017-09-10T20:10:45.497Z,12.70
2017-09-10T20:13:13.854Z,12.53
2017-09-10T20:15:42.204Z,12.65
2017-09-10T20:18:10.549Z,12.49
2017-09-10T20:20:38.868Z,12.47
2017-09-10T20:23:07.227Z,12.48
2017-09-10T20:25:35.565Z,12.29
2017-09-10T20:28:04.947Z,12.35
2017-09-10T20:30:34.069Z,12.40
2017-09-10T20:33:03.163Z,12.33
2017-09-10T20:35:32.417Z,12.25
2017-09-10T20:38:00.751Z,12.21
2017-09-10T20:40:29.092Z,12.15
2017-09-10T20:42:57.411Z,12.05
2017-09-10T20:45:26.580Z,12.00
2017-09-10T20:47:54.897Z,11.95
2017-09-10T20:50:23.254Z,12.02
2017-09-10T20:52:51.606Z,11.98
2017-09-10T20:55:19.955Z,11.99
2017-09-10T20:57:48.307Z,11.98
2017-09-10T21:00:17.387Z,11.95
2017-09-10T21:02:46.026Z,12.02
2017-09-10T21:05:14.350Z,11.96
2017-09-10T21:07:42.727Z,11.88
2017-09-10T21:10:11.064Z,11.95
2017-09-10T21:12:39.371Z,12.06
2017-09-10T21:15:07.719Z,12.02
2017-09-10T21:17:36.944Z,12.05
2017-09-10T21:20:05.298Z,11.89
2017-09-10T21:22:33.642Z,11.89
2017-09-10T21:25:01.966Z,11.75
2017-09-10T21:27:30.310Z,11.66
2017-09-10T21:29:59.658Z,11.64
2017-09-10T21:32:28.033Z,11.57
2017-09-10T21:34:56.365Z,11.51
2017-09-10T21:37:24.713Z,11.47
2017-09-10T21:39:53.067Z,11.46
2017-09-10T21:42:21.396Z,11.50
2017-09-10T21:44:49.746Z,11.36
2017-09-10T21:47:18.078Z,11.48
2017-09-10T21:49:46.450Z,11.36
2017-09-10T21:52:14.800Z,11.53
2017-09-10T21:54:43.145Z,11.50
2017-09-10T21:57:12.207Z,11.47
2017-09-10T21:59:40.536Z,11.41
2017-09-10T22:02:08.881Z,11.34
2017-09-10T22:04:37.191Z,11.32
2017-09-10T22:07:05.518Z,11.32
2017-09-10T22:09:33.839Z,11.33
2017-09-10T22:12:02.233Z,11.26
2017-09-10T22:14:30.567Z,11.26
2017-09-10T22:16:58.921Z,11.35
2017-09-10T22:19:28.021Z,11.41
2017-09-10T22:21:56.365Z,11.24
2017-09-10T22:24:24.737Z,11.24
2017-09-10T22:26:53.056Z,11.19
2017-09-10T22:29:22.146Z,11.16
2017-09-10T22:31:50.480Z,11.25
2017-09-10T22:34:19.071Z,11.22
2017-09-10T22:36:47.397Z,11.07
2017-09-10T22:39:16.498Z,11.03
2017-09-10T22:41:45.609Z,11.01
2017-09-10T22:44:13.919Z,10.99
2017-09-10T22:46:42.252Z,10.99
2017-09-10T22:49:11.347Z,10.97
2017-09-10T22:51:40.457Z,11.03
2017-09-10T22:54:08.891Z,10.90
2017-09-10T22:56:37.280Z,10.96
2017-09-10T22:59:05.633Z,10.99
2017-09-10T23:01:33.950Z,11.04
2017-09-10T23:04:03.198Z,11.02
2017-09-10T23:06:31.521Z,10.89
2017-09-10T23:08:59.834Z,10.89
2017-09-10T23:11:28.458Z,10.77
2017-09-10T23:13:56.784Z,10.93
2017-09-10T23:16:25.675Z,10.94
2017-09-10T23:18:54.023Z,10.94
2017-09-10T23:21:22.348Z,11.06
2017-09-10T23:23:51.008Z,11.00
2017-09-10T23:26:19.315Z,10.96
2017-09-10T23:28:47.654Z,10.99
2017-09-10T23:31:15.998Z,11.14
2017-09-10T23:33:45.051Z,11.07
2017-09-10T23:36:14.347Z,11.03
2017-09-10T23:38:42.686Z,11.21
2017-09-10T23:41:11.015Z,11.33
2017-09-10T23:43:39.365Z,11.28
2017-09-10T23:46:08.482Z,11.34
2017-09-10T23:48:36.840Z,11.32
2017-09-10T23:51:05.160Z,11.27
2017-09-10T23:53:33.505Z,11.42
2017-09-10T23:56:01.842Z,11.41
2017-09-10T23:58:30.172Z,11.52
